sensor_id;sensor_type;location;lat;lon;timestamp;P1;durP1;ratioP1;P2;durP2;ratioP2
20486;SDS011;10402;49.012;8.370;2023-12-20T00:01:21;408.63;;;389.23;;
20486;SDS011;10402;49.012;8.370;2023-12-20T00:03:47;395.85;;;376.90;;
20486;SDS011;10402;49.012;8.370;2023-12-20T00:06:13;393.83;;;375.17;;
20486;SDS011;10402;49.012;8.370;2023-12-20T00:08:38;373.70;;;355.93;;
20486;SDS011;10402;49.012;8.370;2023-12-20T00:11:04;384.20;;;365.37;;
20486;SDS011;10402;49.012;8.370;2023-12-20T00:13:30;368.37;;;350.90;;
20486;SDS011;10402;49.012;8.370;2023-12-20T00:15:55;370.57;;;353.27;;
20486;SDS011;10402;49.012;8.370;2023-12-20T00:18:21;373.37;;;355.53;;
20486;SDS011;10402;49.012;8.370;2023-12-20T00:20:46;362.40;;;345.33;;
20486;SDS011;10402;49.012;8.370;2023-12-20T00:23:12;363.47;;;346.47;;
20486;SDS011;10402;49.012;8.370;2023-12-20T00:25:37;365.73;;;348.90;;
20486;SDS011;10402;49.012;8.370;2023-12-20T00:28:03;361.53;;;345.13;;
20486;SDS011;10402;49.012;8.370;2023-12-20T00:30:28;346.23;;;330.50;;
20486;SDS011;10402;49.012;8.370;2023-12-20T00:32:54;340.17;;;324.67;;
20486;SDS011;10402;49.012;8.370;2023-12-20T00:35:20;348.98;;;333.33;;
20486;SDS011;10402;49.012;8.370;2023-12-20T00:37:46;332.23;;;317.57;;
20486;SDS011;10402;49.012;8.370;2023-12-20T00:40:11;328.57;;;314.03;;
20486;SDS011;10402;49.012;8.370;2023-12-20T00:42:37;324.73;;;310.40;;
20486;SDS011;10402;49.012;8.370;2023-12-20T00:45:03;302.07;;;288.87;;
20486;SDS011;10402;49.012;8.370;2023-12-20T00:47:29;311.30;;;297.55;;
20486;SDS011;10402;49.012;8.370;2023-12-20T00:49:55;292.10;;;279.33;;
20486;SDS011;10402;49.012;8.370;2023-12-20T00:52:21;275.63;;;264.00;;
20486;SDS011;10402;49.012;8.370;2023-12-20T00:54:47;268.73;;;257.25;;
20486;SDS011;10402;49.012;8.370;2023-12-20T00:57:13;250.50;;;240.30;;
20486;SDS011;10402;49.012;8.370;2023-12-20T00:59:39;235.13;;;225.60;;
20486;SDS011;10402;49.012;8.370;2023-12-20T01:02:04;228.57;;;219.13;;
20486;SDS011;10402;49.012;8.370;2023-12-20T01:04:30;246.17;;;236.30;;
20486;SDS011;10402;49.012;8.370;2023-12-20T01:06:55;230.27;;;220.97;;
20486;SDS011;10402;49.012;8.370;2023-12-20T01:09:21;226.67;;;217.60;;
20486;SDS011;10402;49.012;8.370;2023-12-20T01:11:51;234.43;;;225.10;;
20486;SDS011;10402;49.012;8.370;2023-12-20T01:14:17;231.43;;;222.27;;
20486;SDS011;10402;49.012;8.370;2023-12-20T01:16:42;230.77;;;221.83;;
20486;SDS011;10402;49.012;8.370;2023-12-20T01:19:08;225.70;;;216.90;;
20486;SDS011;10402;49.012;8.370;2023-12-20T01:21:33;221.23;;;212.57;;
20486;SDS011;10402;49.012;8.370;2023-12-20T01:23:59;227.23;;;218.20;;
20486;SDS011;10402;49.012;8.370;2023-12-20T01:26:24;215.93;;;207.63;;
20486;SDS011;10402;49.012;8.370;2023-12-20T01:28:50;223.03;;;214.40;;
20486;SDS011;10402;49.012;8.370;2023-12-20T01:31:15;218.87;;;210.43;;
20486;SDS011;10402;49.012;8.370;2023-12-20T01:33:41;226.10;;;217.40;;
20486;SDS011;10402;49.012;8.370;2023-12-20T01:36:06;222.90;;;214.30;;
20486;SDS011;10402;49.012;8.370;2023-12-20T01:38:32;223.40;;;214.70;;
20486;SDS011;10402;49.012;8.370;2023-12-20T01:40:58;217.10;;;208.73;;
20486;SDS011;10402;49.012;8.370;2023-12-20T01:43:24;220.53;;;212.00;;
20486;SDS011;10402;49.012;8.370;2023-12-20T01:45:49;217.63;;;209.07;;
20486;SDS011;10402;49.012;8.370;2023-12-20T01:48:15;225.60;;;216.67;;
20486;SDS011;10402;49.012;8.370;2023-12-20T01:50:42;217.52;;;208.73;;
20486;SDS011;10402;49.012;8.370;2023-12-20T01:53:08;226.38;;;217.32;;
20486;SDS011;10402;49.012;8.370;2023-12-20T01:55:38;204.88;;;196.60;;
20486;SDS011;10402;49.012;8.370;2023-12-20T01:58:05;224.85;;;215.80;;
20486;SDS011;10402;49.012;8.370;2023-12-20T02:00:32;220.23;;;211.32;;
20486;SDS011;10402;49.012;8.370;2023-12-20T02:03:00;219.82;;;210.98;;
20486;SDS011;10402;49.012;8.370;2023-12-20T02:05:27;217.02;;;208.15;;
20486;SDS011;10402;49.012;8.370;2023-12-20T02:07:54;216.27;;;207.55;;
20486;SDS011;10402;49.012;8.370;2023-12-20T02:10:19;216.37;;;207.37;;
20486;SDS011;10402;49.012;8.370;2023-12-20T02:12:45;210.87;;;202.27;;
20486;SDS011;10402;49.012;8.370;2023-12-20T02:15:11;209.27;;;200.93;;
20486;SDS011;10402;49.012;8.370;2023-12-20T02:17:36;209.63;;;201.10;;
20486;SDS011;10402;49.012;8.370;2023-12-20T02:20:04;212.38;;;203.50;;
20486;SDS011;10402;49.012;8.370;2023-12-20T02:22:31;217.93;;;208.85;;
20486;SDS011;10402;49.012;8.370;2023-12-20T02:24:56;223.03;;;213.67;;
20486;SDS011;10402;49.012;8.370;2023-12-20T02:27:22;208.50;;;199.83;;
20486;SDS011;10402;49.012;8.370;2023-12-20T02:29:48;217.93;;;208.55;;
20486;SDS011;10402;49.012;8.370;2023-12-20T02:32:15;216.63;;;207.60;;
20486;SDS011;10402;49.012;8.370;2023-12-20T02:34:42;219.32;;;210.25;;
20486;SDS011;10402;49.012;8.370;2023-12-20T02:37:07;204.67;;;196.20;;
20486;SDS011;10402;49.012;8.370;2023-12-20T02:39:33;214.20;;;205.13;;
20486;SDS011;10402;49.012;8.370;2023-12-20T02:41:58;209.13;;;200.37;;
20486;SDS011;10402;49.012;8.370;2023-12-20T02:44:24;218.50;;;209.30;;
20486;SDS011;10402;49.012;8.370;2023-12-20T02:46:49;205.17;;;196.70;;
20486;SDS011;10402;49.012;8.370;2023-12-20T02:49:15;217.73;;;208.33;;
20486;SDS011;10402;49.012;8.370;2023-12-20T02:51:40;218.33;;;209.13;;
20486;SDS011;10402;49.012;8.370;2023-12-20T02:54:06;230.27;;;220.43;;
20486;SDS011;10402;49.012;8.370;2023-12-20T02:56:32;211.27;;;202.30;;
20486;SDS011;10402;49.012;8.370;2023-12-20T02:58:58;236.40;;;226.15;;
20486;SDS011;10402;49.012;8.370;2023-12-20T03:01:23;222.97;;;213.30;;
20486;SDS011;10402;49.012;8.370;2023-12-20T03:03:49;223.37;;;213.73;;
20486;SDS011;10402;49.012;8.370;2023-12-20T03:06:18;232.00;;;221.90;;
20486;SDS011;10402;49.012;8.370;2023-12-20T03:08:43;245.05;;;234.45;;
20486;SDS011;10402;49.012;8.370;2023-12-20T03:11:09;222.07;;;212.53;;
20486;SDS011;10402;49.012;8.370;2023-12-20T03:13:35;246.47;;;235.87;;
20486;SDS011;10402;49.012;8.370;2023-12-20T03:16:00;227.30;;;217.30;;
20486;SDS011;10402;49.012;8.370;2023-12-20T03:18:26;233.67;;;223.43;;
20486;SDS011;10402;49.012;8.370;2023-12-20T03:20:53;242.65;;;232.00;;
20486;SDS011;10402;49.012;8.370;2023-12-20T03:23:19;230.57;;;220.40;;
20486;SDS011;10402;49.012;8.370;2023-12-20T03:25:44;247.27;;;236.40;;
20486;SDS011;10402;49.012;8.370;2023-12-20T03:28:10;232.13;;;222.07;;
20486;SDS011;10402;49.012;8.370;2023-12-20T03:30:35;237.23;;;226.67;;
20486;SDS011;10402;49.012;8.370;2023-12-20T03:33:01;230.57;;;220.70;;
20486;SDS011;10402;49.012;8.370;2023-12-20T03:35:26;238.63;;;228.30;;
20486;SDS011;10402;49.012;8.370;2023-12-20T03:37:51;243.83;;;233.27;;
20486;SDS011;10402;49.012;8.370;2023-12-20T03:40:17;242.50;;;231.53;;
20486;SDS011;10402;49.012;8.370;2023-12-20T03:42:43;251.50;;;240.33;;
20486;SDS011;10402;49.012;8.370;2023-12-20T03:45:08;243.20;;;232.33;;
20486;SDS011;10402;49.012;8.370;2023-12-20T03:47:34;260.40;;;249.10;;
20486;SDS011;10402;49.012;8.370;2023-12-20T03:50:00;240.20;;;229.60;;
20486;SDS011;10402;49.012;8.370;2023-12-20T03:52:25;262.80;;;251.17;;
20486;SDS011;10402;49.012;8.370;2023-12-20T03:54:50;264.90;;;253.20;;
20486;SDS011;10402;49.012;8.370;2023-12-20T03:57:16;268.77;;;256.90;;
20486;SDS011;10402;49.012;8.370;2023-12-20T03:59:41;277.23;;;264.87;;
20486;SDS011;10402;49.012;8.370;2023-12-20T04:02:07;273.07;;;260.90;;
20486;SDS011;10402;49.012;8.370;2023-12-20T04:04:32;266.63;;;254.77;;
20486;SDS011;10402;49.012;8.370;2023-12-20T04:06:58;264.50;;;253.07;;
20486;SDS011;10402;49.012;8.370;2023-12-20T04:09:23;259.30;;;247.73;;
20486;SDS011;10402;49.012;8.370;2023-12-20T04:11:49;260.70;;;249.13;;
20486;SDS011;10402;49.012;8.370;2023-12-20T04:14:14;273.07;;;260.80;;
20486;SDS011;10402;49.012;8.370;2023-12-20T04:16:40;274.70;;;262.57;;
20486;SDS011;10402;49.012;8.370;2023-12-20T04:19:05;280.30;;;267.70;;
20486;SDS011;10402;49.012;8.370;2023-12-20T04:21:31;293.57;;;280.33;;
20486;SDS011;10402;49.012;8.370;2023-12-20T04:23:56;287.47;;;274.67;;
20486;SDS011;10402;49.012;8.370;2023-12-20T04:26:22;275.13;;;262.70;;
20486;SDS011;10402;49.012;8.370;2023-12-20T04:28:47;292.33;;;279.10;;
20486;SDS011;10402;49.012;8.370;2023-12-20T04:31:13;286.03;;;273.10;;
20486;SDS011;10402;49.012;8.370;2023-12-20T04:33:38;292.43;;;279.37;;
20486;SDS011;10402;49.012;8.370;2023-12-20T04:36:04;306.53;;;292.63;;
20486;SDS011;10402;49.012;8.370;2023-12-20T04:38:30;300.07;;;286.43;;
20486;SDS011;10402;49.012;8.370;2023-12-20T04:40:55;298.50;;;284.93;;
20486;SDS011;10402;49.012;8.370;2023-12-20T04:43:21;284.60;;;271.87;;
20486;SDS011;10402;49.012;8.370;2023-12-20T04:45:47;288.27;;;275.47;;
20486;SDS011;10402;49.012;8.370;2023-12-20T04:48:12;297.83;;;284.67;;
20486;SDS011;10402;49.012;8.370;2023-12-20T04:50:38;293.53;;;280.33;;
20486;SDS011;10402;49.012;8.370;2023-12-20T04:53:03;302.47;;;288.90;;
20486;SDS011;10402;49.012;8.370;2023-12-20T04:55:29;311.03;;;296.97;;
20486;SDS011;10402;49.012;8.370;2023-12-20T04:57:54;300.17;;;286.87;;
20486;SDS011;10402;49.012;8.370;2023-12-20T05:00:21;314.52;;;300.45;;
20486;SDS011;10402;49.012;8.370;2023-12-20T05:02:46;286.60;;;274.10;;
20486;SDS011;10402;49.012;8.370;2023-12-20T05:05:12;277.17;;;264.73;;
20486;SDS011;10402;49.012;8.370;2023-12-20T05:07:40;302.92;;;289.30;;
20486;SDS011;10402;49.012;8.370;2023-12-20T05:10:05;295.33;;;282.23;;
20486;SDS011;10402;49.012;8.370;2023-12-20T05:12:33;298.52;;;285.63;;
20486;SDS011;10402;49.012;8.370;2023-12-20T05:14:58;314.37;;;300.63;;
20486;SDS011;10402;49.012;8.370;2023-12-20T05:17:24;292.33;;;279.63;;
20486;SDS011;10402;49.012;8.370;2023-12-20T05:19:50;313.07;;;299.03;;
20486;SDS011;10402;49.012;8.370;2023-12-20T05:22:15;294.47;;;281.43;;
20486;SDS011;10402;49.012;8.370;2023-12-20T05:24:42;315.40;;;301.50;;
20486;SDS011;10402;49.012;8.370;2023-12-20T05:27:07;302.83;;;289.30;;
20486;SDS011;10402;49.012;8.370;2023-12-20T05:29:33;304.73;;;290.93;;
20486;SDS011;10402;49.012;8.370;2023-12-20T05:31:58;304.13;;;290.77;;
20486;SDS011;10402;49.012;8.370;2023-12-20T05:34:24;305.33;;;291.83;;
20486;SDS011;10402;49.012;8.370;2023-12-20T05:36:49;307.23;;;293.77;;
20486;SDS011;10402;49.012;8.370;2023-12-20T05:39:15;295.30;;;282.30;;
20486;SDS011;10402;49.012;8.370;2023-12-20T05:41:41;306.70;;;293.17;;
20486;SDS011;10402;49.012;8.370;2023-12-20T05:44:06;314.70;;;300.93;;
20486;SDS011;10402;49.012;8.370;2023-12-20T05:46:32;301.67;;;288.33;;
20486;SDS011;10402;49.012;8.370;2023-12-20T05:48:57;295.97;;;283.10;;
20486;SDS011;10402;49.012;8.370;2023-12-20T05:51:23;326.80;;;312.43;;
20486;SDS011;10402;49.012;8.370;2023-12-20T05:53:48;304.20;;;290.93;;
20486;SDS011;10402;49.012;8.370;2023-12-20T05:56:15;316.17;;;302.42;;
20486;SDS011;10402;49.012;8.370;2023-12-20T05:58:40;303.80;;;290.57;;
20486;SDS011;10402;49.012;8.370;2023-12-20T06:01:06;317.23;;;303.30;;
20486;SDS011;10402;49.012;8.370;2023-12-20T06:03:33;302.77;;;289.73;;
20486;SDS011;10402;49.012;8.370;2023-12-20T06:05:59;302.87;;;289.77;;
20486;SDS011;10402;49.012;8.370;2023-12-20T06:08:29;309.53;;;295.97;;
20486;SDS011;10402;49.012;8.370;2023-12-20T06:10:54;317.20;;;303.13;;
20486;SDS011;10402;49.012;8.370;2023-12-20T06:13:20;298.40;;;285.40;;
20486;SDS011;10402;49.012;8.370;2023-12-20T06:15:45;320.97;;;306.90;;
20486;SDS011;10402;49.012;8.370;2023-12-20T06:18:11;306.47;;;293.10;;
20486;SDS011;10402;49.012;8.370;2023-12-20T06:20:36;327.27;;;312.73;;
20486;SDS011;10402;49.012;8.370;2023-12-20T06:23:02;309.63;;;296.23;;
20486;SDS011;10402;49.012;8.370;2023-12-20T06:25:27;295.13;;;282.37;;
20486;SDS011;10402;49.012;8.370;2023-12-20T06:27:53;323.17;;;309.23;;
20486;SDS011;10402;49.012;8.370;2023-12-20T06:30:18;328.90;;;314.53;;
20486;SDS011;10402;49.012;8.370;2023-12-20T06:32:44;318.80;;;304.97;;
20486;SDS011;10402;49.012;8.370;2023-12-20T06:35:11;317.17;;;303.42;;
20486;SDS011;10402;49.012;8.370;2023-12-20T06:37:37;326.10;;;312.03;;
20486;SDS011;10402;49.012;8.370;2023-12-20T06:40:03;327.47;;;313.20;;
20486;SDS011;10402;49.012;8.370;2023-12-20T06:42:29;327.60;;;313.73;;
20486;SDS011;10402;49.012;8.370;2023-12-20T06:44:54;326.23;;;312.13;;
20486;SDS011;10402;49.012;8.370;2023-12-20T06:47:20;316.73;;;303.07;;
20486;SDS011;10402;49.012;8.370;2023-12-20T06:49:45;326.57;;;312.47;;
20486;SDS011;10402;49.012;8.370;2023-12-20T06:52:11;318.93;;;305.50;;
20486;SDS011;10402;49.012;8.370;2023-12-20T06:54:36;333.07;;;318.73;;
20486;SDS011;10402;49.012;8.370;2023-12-20T06:57:02;335.53;;;321.10;;
20486;SDS011;10402;49.012;8.370;2023-12-20T06:59:29;346.92;;;331.92;;
20486;SDS011;10402;49.012;8.370;2023-12-20T07:01:54;334.10;;;319.27;;
20486;SDS011;10402;49.012;8.370;2023-12-20T07:04:20;339.17;;;324.47;;
20486;SDS011;10402;49.012;8.370;2023-12-20T07:06:47;341.17;;;326.67;;
20486;SDS011;10402;49.012;8.370;2023-12-20T07:09:13;351.02;;;335.83;;
20486;SDS011;10402;49.012;8.370;2023-12-20T07:11:39;315.57;;;302.00;;
20486;SDS011;10402;49.012;8.370;2023-12-20T07:14:04;329.73;;;315.47;;
20486;SDS011;10402;49.012;8.370;2023-12-20T07:16:30;330.40;;;316.10;;
20486;SDS011;10402;49.012;8.370;2023-12-20T07:18:56;347.05;;;331.73;;
20486;SDS011;10402;49.012;8.370;2023-12-20T07:21:22;335.50;;;320.90;;
20486;SDS011;10402;49.012;8.370;2023-12-20T07:23:48;335.53;;;320.93;;
20486;SDS011;10402;49.012;8.370;2023-12-20T07:26:13;351.13;;;335.73;;
20486;SDS011;10402;49.012;8.370;2023-12-20T07:28:39;347.98;;;332.80;;
20486;SDS011;10402;49.012;8.370;2023-12-20T07:31:05;339.37;;;324.50;;
20486;SDS011;10402;49.012;8.370;2023-12-20T07:33:31;330.17;;;315.70;;
20486;SDS011;10402;49.012;8.370;2023-12-20T07:35:56;323.20;;;309.00;;
20486;SDS011;10402;49.012;8.370;2023-12-20T07:38:22;329.67;;;315.33;;
20486;SDS011;10402;49.012;8.370;2023-12-20T07:40:48;329.57;;;315.20;;
20486;SDS011;10402;49.012;8.370;2023-12-20T07:43:13;347.77;;;332.47;;
20486;SDS011;10402;49.012;8.370;2023-12-20T07:45:39;328.37;;;314.17;;
20486;SDS011;10402;49.012;8.370;2023-12-20T07:48:05;333.17;;;318.77;;
20486;SDS011;10402;49.012;8.370;2023-12-20T07:50:31;342.40;;;327.33;;
20486;SDS011;10402;49.012;8.370;2023-12-20T07:52:57;329.48;;;315.02;;
20486;SDS011;10402;49.012;8.370;2023-12-20T07:55:24;336.75;;;321.75;;
20486;SDS011;10402;49.012;8.370;2023-12-20T07:57:50;334.23;;;319.37;;
20486;SDS011;10402;49.012;8.370;2023-12-20T08:00:15;333.77;;;318.90;;
20486;SDS011;10402;49.012;8.370;2023-12-20T08:02:42;357.38;;;341.08;;
20486;SDS011;10402;49.012;8.370;2023-12-20T08:05:08;333.80;;;318.97;;
20486;SDS011;10402;49.012;8.370;2023-12-20T08:07:33;331.23;;;316.73;;
20486;SDS011;10402;49.012;8.370;2023-12-20T08:09:59;331.50;;;317.03;;
20486;SDS011;10402;49.012;8.370;2023-12-20T08:12:25;330.27;;;315.40;;
20486;SDS011;10402;49.012;8.370;2023-12-20T08:14:52;345.50;;;330.23;;
20486;SDS011;10402;49.012;8.370;2023-12-20T08:17:19;335.43;;;320.53;;
20486;SDS011;10402;49.012;8.370;2023-12-20T08:19:44;324.93;;;310.43;;
20486;SDS011;10402;49.012;8.370;2023-12-20T08:22:10;326.27;;;311.87;;
20486;SDS011;10402;49.012;8.370;2023-12-20T08:24:36;318.30;;;304.05;;
20486;SDS011;10402;49.012;8.370;2023-12-20T08:27:02;317.17;;;303.10;;
20486;SDS011;10402;49.012;8.370;2023-12-20T08:29:27;324.03;;;309.30;;
20486;SDS011;10402;49.012;8.370;2023-12-20T08:31:53;332.57;;;317.77;;
20486;SDS011;10402;49.012;8.370;2023-12-20T08:34:20;352.40;;;336.48;;
20486;SDS011;10402;49.012;8.370;2023-12-20T08:36:45;337.30;;;322.10;;
20486;SDS011;10402;49.012;8.370;2023-12-20T08:39:11;343.67;;;328.17;;
20486;SDS011;10402;49.012;8.370;2023-12-20T08:41:36;347.03;;;331.47;;
20486;SDS011;10402;49.012;8.370;2023-12-20T08:44:02;334.60;;;319.53;;
20486;SDS011;10402;49.012;8.370;2023-12-20T08:46:28;324.20;;;309.60;;
20486;SDS011;10402;49.012;8.370;2023-12-20T08:48:54;333.57;;;318.63;;
20486;SDS011;10402;49.012;8.370;2023-12-20T08:51:19;327.80;;;313.30;;
20486;SDS011;10402;49.012;8.370;2023-12-20T08:53:47;315.50;;;301.35;;
20486;SDS011;10402;49.012;8.370;2023-12-20T08:56:14;333.73;;;318.90;;
20486;SDS011;10402;49.012;8.370;2023-12-20T08:58:39;320.17;;;305.80;;
20486;SDS011;10402;49.012;8.370;2023-12-20T09:01:05;334.63;;;319.60;;
20486;SDS011;10402;49.012;8.370;2023-12-20T09:03:30;318.83;;;304.73;;
20486;SDS011;10402;49.012;8.370;2023-12-20T09:05:56;320.97;;;306.90;;
20486;SDS011;10402;49.012;8.370;2023-12-20T09:08:21;326.83;;;312.40;;
20486;SDS011;10402;49.012;8.370;2023-12-20T09:10:47;322.67;;;308.73;;
20486;SDS011;10402;49.012;8.370;2023-12-20T09:13:12;327.03;;;312.93;;
20486;SDS011;10402;49.012;8.370;2023-12-20T09:15:38;321.90;;;308.07;;
20486;SDS011;10402;49.012;8.370;2023-12-20T09:18:03;334.83;;;320.43;;
20486;SDS011;10402;49.012;8.370;2023-12-20T09:20:29;316.97;;;303.17;;
20486;SDS011;10402;49.012;8.370;2023-12-20T09:22:55;336.03;;;321.73;;
20486;SDS011;10402;49.012;8.370;2023-12-20T09:25:20;320.90;;;307.57;;
20486;SDS011;10402;49.012;8.370;2023-12-20T09:27:47;348.27;;;333.60;;
20486;SDS011;10402;49.012;8.370;2023-12-20T09:30:13;345.50;;;330.73;;
20486;SDS011;10402;49.012;8.370;2023-12-20T09:32:38;345.77;;;331.27;;
20486;SDS011;10402;49.012;8.370;2023-12-20T09:35:04;329.97;;;316.37;;
20486;SDS011;10402;49.012;8.370;2023-12-20T09:37:31;347.38;;;332.75;;
20486;SDS011;10402;49.012;8.370;2023-12-20T09:39:57;337.00;;;323.37;;
20486;SDS011;10402;49.012;8.370;2023-12-20T09:43:08;341.40;;;327.63;;
20486;SDS011;10402;49.012;8.370;2023-12-20T09:45:15;322.27;;;309.60;;
20486;SDS011;10402;49.012;8.370;2023-12-20T09:47:43;331.17;;;317.85;;
20486;SDS011;10402;49.012;8.370;2023-12-20T09:50:09;338.13;;;324.60;;
20486;SDS011;10402;49.012;8.370;2023-12-20T09:52:35;343.53;;;329.57;;
20486;SDS011;10402;49.012;8.370;2023-12-20T09:55:01;344.37;;;330.37;;
20486;SDS011;10402;49.012;8.370;2023-12-20T09:57:31;332.02;;;318.17;;
20486;SDS011;10402;49.012;8.370;2023-12-20T09:59:57;333.58;;;320.15;;
20486;SDS011;10402;49.012;8.370;2023-12-20T10:02:23;317.40;;;304.20;;
20486;SDS011;10402;49.012;8.370;2023-12-20T10:04:54;321.33;;;308.38;;
20486;SDS011;10402;49.012;8.370;2023-12-20T10:07:20;310.83;;;298.10;;
20486;SDS011;10402;49.012;8.370;2023-12-20T10:09:47;315.70;;;302.88;;
20486;SDS011;10402;49.012;8.370;2023-12-20T10:12:13;317.20;;;304.60;;
20486;SDS011;10402;49.012;8.370;2023-12-20T10:14:38;328.73;;;315.00;;
20486;SDS011;10402;49.012;8.370;2023-12-20T10:17:05;309.02;;;296.33;;
20486;SDS011;10402;49.012;8.370;2023-12-20T10:19:31;283.48;;;271.80;;
20486;SDS011;10402;49.012;8.370;2023-12-20T10:21:57;267.92;;;257.00;;
20486;SDS011;10402;49.012;8.370;2023-12-20T10:24:29;256.02;;;245.50;;
20486;SDS011;10402;49.012;8.370;2023-12-20T10:27:01;252.77;;;242.40;;
20486;SDS011;10402;49.012;8.370;2023-12-20T10:29:33;241.70;;;231.82;;
20486;SDS011;10402;49.012;8.370;2023-12-20T10:32:24;244.20;;;234.38;;
20486;SDS011;10402;49.012;8.370;2023-12-20T10:34:53;229.68;;;220.55;;
20486;SDS011;10402;49.012;8.370;2023-12-20T10:37:20;225.70;;;216.70;;
20486;SDS011;10402;49.012;8.370;2023-12-20T10:39:52;239.07;;;229.70;;
20486;SDS011;10402;49.012;8.370;2023-12-20T10:42:21;228.90;;;219.98;;
20486;SDS011;10402;49.012;8.370;2023-12-20T10:44:50;239.82;;;230.23;;
20486;SDS011;10402;49.012;8.370;2023-12-20T10:47:16;227.60;;;218.75;;
20486;SDS011;10402;49.012;8.370;2023-12-20T10:49:42;219.65;;;211.23;;
20486;SDS011;10402;49.012;8.370;2023-12-20T10:52:09;220.70;;;212.27;;
20486;SDS011;10402;49.012;8.370;2023-12-20T10:54:37;212.05;;;203.88;;
20486;SDS011;10402;49.012;8.370;2023-12-20T10:57:03;219.70;;;211.17;;
20486;SDS011;10402;49.012;8.370;2023-12-20T10:59:31;213.18;;;204.93;;
20486;SDS011;10402;49.012;8.370;2023-12-20T11:01:58;206.77;;;199.00;;
20486;SDS011;10402;49.012;8.370;2023-12-20T11:04:35;213.65;;;205.23;;
20486;SDS011;10402;49.012;8.370;2023-12-20T11:07:38;200.82;;;193.20;;
20486;SDS011;10402;49.012;8.370;2023-12-20T11:10:20;200.52;;;192.85;;
20486;SDS011;10402;49.012;8.370;2023-12-20T11:13:03;224.45;;;215.70;;
20486;SDS011;10402;49.012;8.370;2023-12-20T11:15:36;217.70;;;209.00;;
20486;SDS011;10402;49.012;8.370;2023-12-20T11:18:01;231.00;;;221.73;;
20486;SDS011;10402;49.012;8.370;2023-12-20T11:20:38;263.40;;;252.60;;
20486;SDS011;10402;49.012;8.370;2023-12-20T11:23:05;264.83;;;254.07;;
20486;SDS011;10402;49.012;8.370;2023-12-20T11:25:48;295.60;;;283.33;;
20486;SDS011;10402;49.012;8.370;2023-12-20T11:28:20;307.75;;;295.10;;
20486;SDS011;10402;49.012;8.370;2023-12-20T11:33:14;318.30;;;304.83;;
20486;SDS011;10402;49.012;8.370;2023-12-20T11:35:40;321.13;;;307.67;;
20486;SDS011;10402;49.012;8.370;2023-12-20T11:38:09;339.13;;;324.60;;
20486;SDS011;10402;49.012;8.370;2023-12-20T11:40:35;345.40;;;330.73;;
20486;SDS011;10402;49.012;8.370;2023-12-20T11:43:02;352.60;;;337.50;;
20486;SDS011;10402;49.012;8.370;2023-12-20T11:45:28;340.65;;;326.15;;
20486;SDS011;10402;49.012;8.370;2023-12-20T11:47:54;357.33;;;342.17;;
20486;SDS011;10402;49.012;8.370;2023-12-20T11:50:22;352.60;;;337.60;;
20486;SDS011;10402;49.012;8.370;2023-12-20T11:52:48;330.90;;;317.20;;
20486;SDS011;10402;49.012;8.370;2023-12-20T11:55:14;326.80;;;313.07;;
20486;SDS011;10402;49.012;8.370;2023-12-20T11:57:41;355.53;;;340.73;;
20486;SDS011;10402;49.012;8.370;2023-12-20T12:00:08;336.98;;;323.15;;
20486;SDS011;10402;49.012;8.370;2023-12-20T12:02:33;315.40;;;302.80;;
20486;SDS011;10402;49.012;8.370;2023-12-20T12:04:59;313.53;;;300.73;;
20486;SDS011;10402;49.012;8.370;2023-12-20T12:07:25;338.63;;;324.63;;
20486;SDS011;10402;49.012;8.370;2023-12-20T12:09:51;338.60;;;324.77;;
20486;SDS011;10402;49.012;8.370;2023-12-20T12:12:17;342.57;;;328.47;;
20486;SDS011;10402;49.012;8.370;2023-12-20T12:14:44;339.35;;;325.40;;
20486;SDS011;10402;49.012;8.370;2023-12-20T12:17:10;335.45;;;321.38;;
20486;SDS011;10402;49.012;8.370;2023-12-20T12:19:37;331.60;;;317.80;;
20486;SDS011;10402;49.012;8.370;2023-12-20T12:22:04;342.75;;;328.45;;
20486;SDS011;10402;49.012;8.370;2023-12-20T12:24:37;350.70;;;336.10;;
20486;SDS011;10402;49.012;8.370;2023-12-20T12:27:05;344.13;;;330.00;;
20486;SDS011;10402;49.012;8.370;2023-12-20T12:29:31;353.07;;;338.13;;
20486;SDS011;10402;49.012;8.370;2023-12-20T12:31:57;355.37;;;340.43;;
20486;SDS011;10402;49.012;8.370;2023-12-20T12:34:22;358.07;;;343.03;;
20486;SDS011;10402;49.012;8.370;2023-12-20T12:36:48;354.70;;;340.00;;
20486;SDS011;10402;49.012;8.370;2023-12-20T12:39:14;367.03;;;351.40;;
20486;SDS011;10402;49.012;8.370;2023-12-20T12:41:40;343.50;;;329.10;;
20486;SDS011;10402;49.012;8.370;2023-12-20T12:44:06;352.93;;;337.93;;
20486;SDS011;10402;49.012;8.370;2023-12-20T12:46:32;377.77;;;361.50;;
20486;SDS011;10402;49.012;8.370;2023-12-20T12:48:57;360.37;;;344.77;;
20486;SDS011;10402;49.012;8.370;2023-12-20T12:51:23;369.03;;;353.00;;
20486;SDS011;10402;49.012;8.370;2023-12-20T12:53:50;371.07;;;354.70;;
20486;SDS011;10402;49.012;8.370;2023-12-20T12:56:15;368.67;;;352.65;;
20486;SDS011;10402;49.012;8.370;2023-12-20T12:58:41;383.63;;;366.93;;
20486;SDS011;10402;49.012;8.370;2023-12-20T13:01:07;372.20;;;355.88;;
20486;SDS011;10402;49.012;8.370;2023-12-20T13:03:32;395.60;;;378.47;;
20486;SDS011;10402;49.012;8.370;2023-12-20T13:05:59;387.63;;;370.70;;
20486;SDS011;10402;49.012;8.370;2023-12-20T13:08:24;407.00;;;388.73;;
20486;SDS011;10402;49.012;8.370;2023-12-20T13:10:50;410.33;;;392.10;;
20486;SDS011;10402;49.012;8.370;2023-12-20T13:13:16;397.80;;;380.23;;
20486;SDS011;10402;49.012;8.370;2023-12-20T13:15:41;390.77;;;373.33;;
20486;SDS011;10402;49.012;8.370;2023-12-20T13:18:07;406.30;;;387.93;;
20486;SDS011;10402;49.012;8.370;2023-12-20T13:20:32;420.73;;;401.80;;
20486;SDS011;10402;49.012;8.370;2023-12-20T13:22:58;398.67;;;380.53;;
20486;SDS011;10402;49.012;8.370;2023-12-20T13:25:24;409.30;;;390.80;;
20486;SDS011;10402;49.012;8.370;2023-12-20T13:27:50;413.63;;;394.73;;
20486;SDS011;10402;49.012;8.370;2023-12-20T13:30:16;411.33;;;392.77;;
20486;SDS011;10402;49.012;8.370;2023-12-20T13:32:42;411.70;;;392.83;;
20486;SDS011;10402;49.012;8.370;2023-12-20T13:35:08;409.07;;;390.50;;
20486;SDS011;10402;49.012;8.370;2023-12-20T13:37:34;417.47;;;398.17;;
20486;SDS011;10402;49.012;8.370;2023-12-20T13:39:59;396.40;;;378.43;;
20486;SDS011;10402;49.012;8.370;2023-12-20T13:42:25;403.33;;;384.93;;
20486;SDS011;10402;49.012;8.370;2023-12-20T13:44:52;403.43;;;384.93;;
20486;SDS011;10402;49.012;8.370;2023-12-20T13:47:18;398.77;;;380.83;;
20486;SDS011;10402;49.012;8.370;2023-12-20T13:49:44;411.02;;;392.05;;
20486;SDS011;10402;49.012;8.370;2023-12-20T13:52:10;394.73;;;376.77;;
20486;SDS011;10402;49.012;8.370;2023-12-20T13:54:36;387.40;;;369.33;;